Saturday, July 21, 2018, 3:34 PM EDT
Back to Local

KAQW, N Adams Harriman-and-west

Location: North Adams, MA, United States Lat: 42.7
Local Time: 3:34 PM EDT (19:34 GMT) Lon: -73.167
Time Zone: US/Eastern Elev: 652 ft

Show me the last for .
Show Decoded

2018-07-21 14:52 METAR KAQW 211852Z AUTO 07009G14KT 020V100 10SM CLR 26/13 A3007 RMK AO2 SLP181
                 T02560128 =
2018-07-21 13:52 METAR KAQW 211752Z AUTO 10007G18KT 050V130 10SM CLR 26/14 A3009 RMK AO2 SLP187
                 T02560139 10256 20161 58018 =
2018-07-21 12:52 METAR KAQW 211652Z AUTO 09007KT 040V100 10SM CLR 24/14 A3012 RMK AO2 SLP196
                 T02440139 =
2018-07-21 11:52 METAR KAQW 211552Z AUTO 10008KT 050V120 10SM BKN038 23/14 A3014 RMK AO2 SLP203
                 T02330139 =
2018-07-21 10:52 METAR KAQW 211452Z AUTO VRB05KT 10SM BKN037 23/14 A3014 RMK AO2 SLP205 T02280139
                 55003 =
2018-07-21 09:52 METAR KAQW 211352Z AUTO 09007KT 050V120 10SM FEW031 22/14 A3014 RMK AO2 SLP203
                 T02170139 =
2018-07-21 08:52 METAR KAQW 211252Z AUTO 00000KT 10SM CLR 19/14 A3015 RMK AO2 SLP207 T01940139 =
2018-07-21 07:52 METAR KAQW 211152Z AUTO 00000KT 10SM CLR 16/12 A3015 RMK AO2 SLP208 T01610122
                 10161 20122 51002 =
2018-07-21 06:52 METAR KAQW 211052Z AUTO 00000KT 10SM CLR 14/12 A3015 RMK AO2 SLP208 T01390117 =
2018-07-21 05:52 METAR KAQW 210952Z AUTO 00000KT 10SM CLR 13/11 A3015 RMK AO2 SLP209 T01280111 =
2018-07-21 04:52 METAR KAQW 210852Z AUTO 00000KT 10SM CLR 14/12 A3015 RMK AO2 SLP206 T01390122
                 51005 =
2018-07-21 03:52 METAR KAQW 210752Z AUTO 14003KT 10SM CLR 14/12 A3014 RMK AO2 SLP204 T01390122 =
2018-07-21 02:52 METAR KAQW 210652Z AUTO 00000KT 10SM CLR 15/13 A3014 RMK AO2 SLP205 T01500128 =
2018-07-21 01:52 METAR KAQW 210552Z AUTO 09007KT 10SM CLR 16/13 A3013 RMK AO2 SLP201 T01610133
                 10250 20156 51000 =
2018-07-21 00:52 METAR KAQW 210452Z AUTO 15003KT 10SM CLR 16/13 A3013 RMK AO2 SLP201 T01610133
                 402890094 =
2018-07-20 23:52 METAR KAQW 210352Z AUTO 11004KT 10SM CLR 18/13 A3014 RMK AO2 SLP203 T01780133 =
2018-07-20 22:52 METAR KAQW 210252Z AUTO 00000KT 10SM CLR 17/14 A3013 RMK AO2 SLP201 T01720139
                 51008 =
2018-07-20 21:52 METAR KAQW 210152Z AUTO 00000KT 10SM CLR 19/14 A3013 RMK AO2 SLP200 T01940144 =
2018-07-20 20:52 METAR KAQW 210052Z AUTO 13004KT 10SM CLR 22/13 A3012 RMK AO2 SLP196 T02220133 =
2018-07-20 19:52 METAR KAQW 202352Z AUTO 12009KT 10SM CLR 25/14 A3011 RMK AO2 SLP193 T02500144
                 10289 20250 53000 =
2018-07-20 18:52 METAR KAQW 202252Z AUTO 14005KT 10SM CLR 26/15 A3010 RMK AO2 SLP191 T02610150 =
2018-07-20 17:52 METAR KAQW 202152Z AUTO 11009KT 10SM CLR 27/14 A3010 RMK AO2 SLP192 T02670144 =
2018-07-20 16:52 METAR KAQW 202052Z AUTO 09007KT 040V120 10SM SCT060 28/15 A3011 RMK AO2 SLP194
                 T02830150 55010 =
2018-07-20 15:52 METAR KAQW 201952Z AUTO 10007KT 060V120 10SM FEW060 28/15 A3010 RMK AO2 SLP193
                 T02830150 =

Support USWX by starting your Amazon purchase here.